sensor_id;sensor_type;location;lat;lon;timestamp;pressure;altitude;pressure_sealevel;temperature;humidity
45793;BME280;31495;42.740;22.908;2023-02-17T00:00:32;94074.84;;;-0.38;67.13
45793;BME280;31495;42.740;22.908;2023-02-17T00:01:32;94006.78;;;-0.67;66.84
45793;BME280;31495;42.740;22.908;2023-02-17T00:02:32;94032.38;;;-0.47;66.79
45793;BME280;31495;42.740;22.908;2023-02-17T00:03:31;94045.72;;;-0.34;66.68
45793;BME280;31495;42.740;22.908;2023-02-17T00:04:32;94066.94;;;-0.24;66.64
45793;BME280;31495;42.740;22.908;2023-02-17T00:05:32;94022.81;;;-0.66;65.98
45793;BME280;31495;42.740;22.908;2023-02-17T00:06:31;94056.75;;;-0.56;66.79
45793;BME280;31495;42.740;22.908;2023-02-17T00:07:32;94069.22;;;-0.42;66.99
45793;BME280;31495;42.740;22.908;2023-02-17T00:08:31;94054.09;;;-0.54;66.66
45793;BME280;31495;42.740;22.908;2023-02-17T00:09:31;93965.75;;;-1.06;66.90
45793;BME280;31495;42.740;22.908;2023-02-17T00:10:30;94037.34;;;-0.46;66.41
45793;BME280;31495;42.740;22.908;2023-02-17T00:11:30;94029.66;;;-0.67;66.90
45793;BME280;31495;42.740;22.908;2023-02-17T00:12:30;94031.97;;;-0.64;67.18
45793;BME280;31495;42.740;22.908;2023-02-17T00:13:29;94070.91;;;-0.31;66.86
45793;BME280;31495;42.740;22.908;2023-02-17T00:14:28;94039.56;;;-0.52;66.76
45793;BME280;31495;42.740;22.908;2023-02-17T00:15:28;94054.41;;;-0.48;66.61
45793;BME280;31495;42.740;22.908;2023-02-17T00:16:28;94029.44;;;-0.75;67.43
45793;BME280;31495;42.740;22.908;2023-02-17T00:17:27;94027.09;;;-0.67;67.29
45793;BME280;31495;42.740;22.908;2023-02-17T00:18:27;94034.50;;;-0.64;66.93
45793;BME280;31495;42.740;22.908;2023-02-17T00:19:26;94031.84;;;-0.62;66.25
45793;BME280;31495;42.740;22.908;2023-02-17T00:20:27;94035.19;;;-0.62;65.72
45793;BME280;31495;42.740;22.908;2023-02-17T00:21:29;94027.47;;;-0.71;66.06
45793;BME280;31495;42.740;22.908;2023-02-17T00:22:29;94031.34;;;-0.56;65.69
45793;BME280;31495;42.740;22.908;2023-02-17T00:23:28;94021.41;;;-0.59;65.91
45793;BME280;31495;42.740;22.908;2023-02-17T00:24:32;94066.88;;;-0.33;66.15
45793;BME280;31495;42.740;22.908;2023-02-17T00:25:32;94044.13;;;-0.46;66.03
45793;BME280;31495;42.740;22.908;2023-02-17T00:26:31;94038.53;;;-0.61;66.62
45793;BME280;31495;42.740;22.908;2023-02-17T00:27:31;93997.81;;;-0.94;67.40
45793;BME280;31495;42.740;22.908;2023-02-17T00:28:30;94059.69;;;-0.61;67.24
45793;BME280;31495;42.740;22.908;2023-02-17T00:29:30;94010.66;;;-0.95;67.02
45793;BME280;31495;42.740;22.908;2023-02-17T00:30:30;93987.00;;;-1.07;67.08
45793;BME280;31495;42.740;22.908;2023-02-17T00:31:29;94001.06;;;-0.91;66.85
45793;BME280;31495;42.740;22.908;2023-02-17T00:32:28;94035.19;;;-0.73;66.54
45793;BME280;31495;42.740;22.908;2023-02-17T00:33:28;94060.38;;;-0.59;66.58
45793;BME280;31495;42.740;22.908;2023-02-17T00:34:27;94038.56;;;-0.84;66.81
45793;BME280;31495;42.740;22.908;2023-02-17T00:35:27;94024.63;;;-1.01;67.06
45793;BME280;31495;42.740;22.908;2023-02-17T00:36:27;94038.47;;;-0.94;67.05
45793;BME280;31495;42.740;22.908;2023-02-17T00:37:27;94043.63;;;-0.84;67.40
45793;BME280;31495;42.740;22.908;2023-02-17T00:38:27;94038.22;;;-0.90;66.98
45793;BME280;31495;42.740;22.908;2023-02-17T00:39:27;94051.13;;;-0.71;67.00
45793;BME280;31495;42.740;22.908;2023-02-17T00:40:27;94018.94;;;-0.82;66.79
45793;BME280;31495;42.740;22.908;2023-02-17T00:41:27;94029.00;;;-0.80;66.62
45793;BME280;31495;42.740;22.908;2023-02-17T00:42:26;94004.31;;;-1.01;66.33
45793;BME280;31495;42.740;22.908;2023-02-17T00:43:26;94040.75;;;-0.79;66.20
45793;BME280;31495;42.740;22.908;2023-02-17T00:44:25;94025.91;;;-0.95;66.42
45793;BME280;31495;42.740;22.908;2023-02-17T00:45:25;93962.13;;;-1.36;66.23
45793;BME280;31495;42.740;22.908;2023-02-17T00:46:25;94063.50;;;-0.66;66.53
45793;BME280;31495;42.740;22.908;2023-02-17T00:47:25;94025.53;;;-0.90;66.62
45793;BME280;31495;42.740;22.908;2023-02-17T00:48:24;94028.44;;;-0.95;67.35
45793;BME280;31495;42.740;22.908;2023-02-17T00:49:25;94049.09;;;-0.88;67.61
45793;BME280;31495;42.740;22.908;2023-02-17T00:50:25;94011.59;;;-1.19;67.60
45793;BME280;31495;42.740;22.908;2023-02-17T00:51:24;94058.78;;;-0.82;67.66
45793;BME280;31495;42.740;22.908;2023-02-17T00:52:24;93990.72;;;-1.22;67.62
45793;BME280;31495;42.740;22.908;2023-02-17T00:53:23;94045.16;;;-0.81;67.62
45793;BME280;31495;42.740;22.908;2023-02-17T00:54:23;94046.63;;;-0.67;67.53
45793;BME280;31495;42.740;22.908;2023-02-17T00:55:22;94040.50;;;-0.65;67.44
45793;BME280;31495;42.740;22.908;2023-02-17T00:56:22;94059.16;;;-0.43;67.56
45793;BME280;31495;42.740;22.908;2023-02-17T00:57:21;94059.38;;;-0.46;67.62
45793;BME280;31495;42.740;22.908;2023-02-17T00:58:21;94051.19;;;-0.50;67.71
45793;BME280;31495;42.740;22.908;2023-02-17T00:59:20;94027.31;;;-0.59;67.94
45793;BME280;31495;42.740;22.908;2023-02-17T01:00:20;94018.53;;;-0.66;67.85
45793;BME280;31495;42.740;22.908;2023-02-17T01:01:20;94003.69;;;-0.82;67.90
45793;BME280;31495;42.740;22.908;2023-02-17T01:02:19;93877.81;;;-1.73;67.91
45793;BME280;31495;42.740;22.908;2023-02-17T01:03:19;93993.09;;;-0.87;67.92
45793;BME280;31495;42.740;22.908;2023-02-17T01:04:18;93998.75;;;-0.83;67.92
45793;BME280;31495;42.740;22.908;2023-02-17T01:05:18;94060.09;;;-0.44;68.03
45793;BME280;31495;42.740;22.908;2023-02-17T01:06:23;94047.66;;;-0.59;68.12
45793;BME280;31495;42.740;22.908;2023-02-17T01:07:23;94025.94;;;-0.74;68.15
45793;BME280;31495;42.740;22.908;2023-02-17T01:08:23;94002.53;;;-0.89;68.29
45793;BME280;31495;42.740;22.908;2023-02-17T01:09:23;94030.34;;;-0.65;67.65
45793;BME280;31495;42.740;22.908;2023-02-17T01:10:22;93995.47;;;-0.85;67.45
45793;BME280;31495;42.740;22.908;2023-02-17T01:11:24;93976.13;;;-0.98;67.38
45793;BME280;31495;42.740;22.908;2023-02-17T01:12:24;94053.38;;;-0.45;67.09
45793;BME280;31495;42.740;22.908;2023-02-17T01:13:23;94018.66;;;-0.67;66.92
45793;BME280;31495;42.740;22.908;2023-02-17T01:14:23;94046.03;;;-0.60;67.24
45793;BME280;31495;42.740;22.908;2023-02-17T01:15:22;94044.78;;;-0.65;67.19
45793;BME280;31495;42.740;22.908;2023-02-17T01:16:25;94043.94;;;-0.66;67.08
45793;BME280;31495;42.740;22.908;2023-02-17T01:17:25;94046.50;;;-0.77;67.48
45793;BME280;31495;42.740;22.908;2023-02-17T01:18:25;94045.72;;;-0.78;67.66
45793;BME280;31495;42.740;22.908;2023-02-17T01:19:25;94015.59;;;-0.94;67.73
45793;BME280;31495;42.740;22.908;2023-02-17T01:20:24;94029.34;;;-0.85;68.08
45793;BME280;31495;42.740;22.908;2023-02-17T01:21:26;94043.50;;;-0.71;68.25
45793;BME280;31495;42.740;22.908;2023-02-17T01:22:26;94003.94;;;-0.85;68.40
45793;BME280;31495;42.740;22.908;2023-02-17T01:23:25;94057.09;;;-0.49;68.23
45793;BME280;31495;42.740;22.908;2023-02-17T01:24:24;94035.84;;;-0.60;68.29
45793;BME280;31495;42.740;22.908;2023-02-17T01:25:24;94044.88;;;-0.56;68.27
45793;BME280;31495;42.740;22.908;2023-02-17T01:26:25;94044.00;;;-0.45;67.85
45793;BME280;31495;42.740;22.908;2023-02-17T01:27:25;94009.75;;;-0.62;67.91
45793;BME280;31495;42.740;22.908;2023-02-17T01:28:25;94014.50;;;-0.57;67.69
45793;BME280;31495;42.740;22.908;2023-02-17T01:29:25;94042.75;;;-0.39;67.67
45793;BME280;31495;42.740;22.908;2023-02-17T01:30:25;94026.91;;;-0.43;67.61
45793;BME280;31495;42.740;22.908;2023-02-17T01:31:25;94058.00;;;-0.39;67.95
45793;BME280;31495;42.740;22.908;2023-02-17T01:32:25;94018.53;;;-0.66;68.09
45793;BME280;31495;42.740;22.908;2023-02-17T01:33:25;94016.97;;;-0.78;68.43
45793;BME280;31495;42.740;22.908;2023-02-17T01:34:25;94045.56;;;-0.53;68.35
45793;BME280;31495;42.740;22.908;2023-02-17T01:35:24;94020.72;;;-0.61;68.30
45793;BME280;31495;42.740;22.908;2023-02-17T01:36:24;94045.53;;;-0.42;68.37
45793;BME280;31495;42.740;22.908;2023-02-17T01:37:23;94042.75;;;-0.39;68.49
45793;BME280;31495;42.740;22.908;2023-02-17T01:38:23;94016.09;;;-0.56;68.25
45793;BME280;31495;42.740;22.908;2023-02-17T01:39:22;94006.78;;;-0.67;68.34
45793;BME280;31495;42.740;22.908;2023-02-17T01:40:22;94035.13;;;-0.39;67.94
45793;BME280;31495;42.740;22.908;2023-02-17T01:41:24;94029.75;;;-0.57;68.02
45793;BME280;31495;42.740;22.908;2023-02-17T01:42:27;94001.84;;;-0.80;68.37
45793;BME280;31495;42.740;22.908;2023-02-17T01:43:27;94021.09;;;-0.66;68.21
45793;BME280;31495;42.740;22.908;2023-02-17T01:44:29;94041.69;;;-0.37;67.59
45793;BME280;31495;42.740;22.908;2023-02-17T01:45:40;94053.72;;;-0.39;67.45
45793;BME280;31495;42.740;22.908;2023-02-17T01:46:49;94026.88;;;-0.64;67.52
45793;BME280;31495;42.740;22.908;2023-02-17T01:47:55;94027.09;;;-0.67;67.71
45793;BME280;31495;42.740;22.908;2023-02-17T01:48:56;93987.66;;;-0.94;67.40
45793;BME280;31495;42.740;22.908;2023-02-17T01:49:56;94026.88;;;-0.64;67.31
45793;BME280;31495;42.740;22.908;2023-02-17T01:51:05;94050.50;;;-0.41;67.20
45793;BME280;31495;42.740;22.908;2023-02-17T01:52:15;94019.25;;;-0.64;67.50
45793;BME280;31495;42.740;22.908;2023-02-17T01:53:20;93940.72;;;-1.11;67.39
45793;BME280;31495;42.740;22.908;2023-02-17T01:54:26;94008.13;;;-0.63;67.77
45793;BME280;31495;42.740;22.908;2023-02-17T01:55:27;94011.25;;;-0.59;67.50
45793;BME280;31495;42.740;22.908;2023-02-17T01:56:28;94036.38;;;-0.45;67.02
45793;BME280;31495;42.740;22.908;2023-02-17T01:57:31;93991.75;;;-0.70;66.91
45793;BME280;31495;42.740;22.908;2023-02-17T01:58:34;93979.31;;;-0.84;66.71
45793;BME280;31495;42.740;22.908;2023-02-17T01:59:35;94034.31;;;-0.51;67.20
45793;BME280;31495;42.740;22.908;2023-02-17T02:00:35;94034.63;;;-0.65;67.21
45793;BME280;31495;42.740;22.908;2023-02-17T02:01:35;94004.16;;;-0.77;67.44
45793;BME280;31495;42.740;22.908;2023-02-17T02:02:35;93965.06;;;-1.08;67.70
45793;BME280;31495;42.740;22.908;2023-02-17T02:03:36;93992.16;;;-0.86;68.01
45793;BME280;31495;42.740;22.908;2023-02-17T02:04:38;94015.00;;;-0.75;67.73
45793;BME280;31495;42.740;22.908;2023-02-17T02:05:40;94034.25;;;-0.61;67.48
45793;BME280;31495;42.740;22.908;2023-02-17T02:06:42;94034.72;;;-0.67;67.03
45793;BME280;31495;42.740;22.908;2023-02-17T02:07:43;94023.66;;;-0.77;67.23
45793;BME280;31495;42.740;22.908;2023-02-17T02:08:58;94000.25;;;-0.92;67.87
45793;BME280;31495;42.740;22.908;2023-02-17T02:10:00;94011.56;;;-0.85;67.18
45793;BME280;31495;42.740;22.908;2023-02-17T02:10:59;94023.41;;;-0.74;67.22
45793;BME280;31495;42.740;22.908;2023-02-17T02:11:59;94023.19;;;-0.82;67.16
45793;BME280;31495;42.740;22.908;2023-02-17T02:12:59;94022.16;;;-0.80;67.14
45793;BME280;31495;42.740;22.908;2023-02-17T02:13:58;93992.69;;;-1.15;67.70
45793;BME280;31495;42.740;22.908;2023-02-17T02:15:01;93995.31;;;-1.05;67.73
45793;BME280;31495;42.740;22.908;2023-02-17T02:30:30;94032.56;;;-0.94;67.94
45793;BME280;31495;42.740;22.908;2023-02-17T02:34:42;94004.53;;;-1.15;68.03
45793;BME280;31495;42.740;22.908;2023-02-17T02:35:54;94036.19;;;-0.97;68.08
45793;BME280;31495;42.740;22.908;2023-02-17T02:37:00;93962.47;;;-1.40;67.75
45793;BME280;31495;42.740;22.908;2023-02-17T02:39:20;93988.63;;;-1.17;67.98
45793;BME280;31495;42.740;22.908;2023-02-17T02:40:25;94003.63;;;-1.14;67.74
45793;BME280;31495;42.740;22.908;2023-02-17T02:41:55;94006.75;;;-1.22;68.19
45793;BME280;31495;42.740;22.908;2023-02-17T02:42:57;94013.56;;;-1.11;68.21
45793;BME280;31495;42.740;22.908;2023-02-17T02:44:05;93997.75;;;-1.26;68.50
45793;BME280;31495;42.740;22.908;2023-02-17T02:45:08;93999.25;;;-1.12;68.27
45793;BME280;31495;42.740;22.908;2023-02-17T02:46:08;94036.66;;;-1.03;68.54
45793;BME280;31495;42.740;22.908;2023-02-17T02:48:42;94042.19;;;-1.09;68.43
45793;BME280;31495;42.740;22.908;2023-02-17T02:49:42;94007.44;;;-1.20;68.52
45793;BME280;31495;42.740;22.908;2023-02-17T02:55:12;94037.78;;;-0.96;68.19
45793;BME280;31495;42.740;22.908;2023-02-17T02:58:20;94029.38;;;-1.07;68.84
45793;BME280;31495;42.740;22.908;2023-02-17T02:59:36;94006.97;;;-1.36;69.07
45793;BME280;31495;42.740;22.908;2023-02-17T03:00:51;93971.00;;;-1.53;68.90
45793;BME280;31495;42.740;22.908;2023-02-17T03:02:40;94034.34;;;-1.06;68.67
45793;BME280;31495;42.740;22.908;2023-02-17T03:03:28;93977.34;;;-1.36;68.17
45793;BME280;31495;42.740;22.908;2023-02-17T03:04:41;93998.22;;;-1.21;68.20
45793;BME280;31495;42.740;22.908;2023-02-17T03:07:15;94010.56;;;-1.27;68.71
45793;BME280;31495;42.740;22.908;2023-02-17T03:08:27;94007.09;;;-1.38;69.11
45793;BME280;31495;42.740;22.908;2023-02-17T03:09:29;94012.06;;;-1.36;69.63
45793;BME280;31495;42.740;22.908;2023-02-17T03:10:29;94019.34;;;-1.32;69.52
45793;BME280;31495;42.740;22.908;2023-02-17T03:11:29;93961.31;;;-1.70;69.57
45793;BME280;31495;42.740;22.908;2023-02-17T03:12:32;94021.06;;;-1.21;69.44
45793;BME280;31495;42.740;22.908;2023-02-17T03:13:33;93996.81;;;-1.36;69.26
45793;BME280;31495;42.740;22.908;2023-02-17T03:14:37;93995.34;;;-1.50;69.21
45793;BME280;31495;42.740;22.908;2023-02-17T03:15:37;94015.88;;;-1.31;69.38
45793;BME280;31495;42.740;22.908;2023-02-17T03:16:38;94029.94;;;-1.04;69.02
45793;BME280;31495;42.740;22.908;2023-02-17T03:17:38;93997.44;;;-1.33;68.85
45793;BME280;31495;42.740;22.908;2023-02-17T03:18:37;94005.38;;;-1.37;68.28
45793;BME280;31495;42.740;22.908;2023-02-17T03:19:37;94026.16;;;-1.21;68.42
45793;BME280;31495;42.740;22.908;2023-02-17T03:20:40;94040.66;;;-1.12;68.62
45793;BME280;31495;42.740;22.908;2023-02-17T03:23:08;93951.50;;;-1.75;68.38
45793;BME280;31495;42.740;22.908;2023-02-17T03:24:08;94029.16;;;-1.27;68.26
45793;BME280;31495;42.740;22.908;2023-02-17T03:25:08;93998.56;;;-1.37;68.20
45793;BME280;31495;42.740;22.908;2023-02-17T03:26:07;94028.47;;;-1.18;67.98
45793;BME280;31495;42.740;22.908;2023-02-17T03:27:06;93990.84;;;-1.46;67.89
45793;BME280;31495;42.740;22.908;2023-02-17T03:28:06;94012.28;;;-1.28;68.12
45793;BME280;31495;42.740;22.908;2023-02-17T03:29:05;94004.81;;;-1.30;67.85
45793;BME280;31495;42.740;22.908;2023-02-17T03:30:05;93983.44;;;-1.50;67.90
45793;BME280;31495;42.740;22.908;2023-02-17T03:31:05;94018.53;;;-1.32;67.82
45793;BME280;31495;42.740;22.908;2023-02-17T03:32:05;93994.28;;;-1.36;67.79
45793;BME280;31495;42.740;22.908;2023-02-17T03:33:04;94014.84;;;-1.39;67.88
45793;BME280;31495;42.740;22.908;2023-02-17T03:34:04;93982.31;;;-1.57;68.29
45793;BME280;31495;42.740;22.908;2023-02-17T03:35:04;94011.16;;;-1.24;68.22
45793;BME280;31495;42.740;22.908;2023-02-17T03:36:04;93982.75;;;-1.52;68.23
45793;BME280;31495;42.740;22.908;2023-02-17T03:37:03;94024.97;;;-1.28;68.56
45793;BME280;31495;42.740;22.908;2023-02-17T03:38:03;94006.06;;;-1.46;68.26
45793;BME280;31495;42.740;22.908;2023-02-17T03:39:02;94005.28;;;-1.47;67.76
45793;BME280;31495;42.740;22.908;2023-02-17T03:40:02;93985.53;;;-1.55;67.72
45793;BME280;31495;42.740;22.908;2023-02-17T03:41:02;93956.81;;;-1.78;67.51
45793;BME280;31495;42.740;22.908;2023-02-17T03:42:02;93996.25;;;-1.62;68.07
45793;BME280;31495;42.740;22.908;2023-02-17T03:43:02;94026.16;;;-1.43;68.32
45793;BME280;31495;42.740;22.908;2023-02-17T03:44:01;94003.84;;;-1.62;68.41
45793;BME280;31495;42.740;22.908;2023-02-17T03:45:01;94026.50;;;-1.48;68.59
45793;BME280;31495;42.740;22.908;2023-02-17T03:46:00;94020.94;;;-1.53;68.84
45793;BME280;31495;42.740;22.908;2023-02-17T03:46:59;94006.06;;;-1.58;68.74
45793;BME280;31495;42.740;22.908;2023-02-17T03:47:59;94002.25;;;-1.63;68.43
45793;BME280;31495;42.740;22.908;2023-02-17T03:48:58;94031.91;;;-1.41;68.29
45793;BME280;31495;42.740;22.908;2023-02-17T03:49:57;93992.69;;;-1.71;68.22
45793;BME280;31495;42.740;22.908;2023-02-17T03:50:57;93979.63;;;-1.78;67.71
45793;BME280;31495;42.740;22.908;2023-02-17T03:51:56;94005.03;;;-1.67;68.14
45793;BME280;31495;42.740;22.908;2023-02-17T03:52:57;93992.13;;;-1.63;67.78
45793;BME280;31495;42.740;22.908;2023-02-17T03:53:57;94015.97;;;-1.66;68.01
45793;BME280;31495;42.740;22.908;2023-02-17T03:54:56;94015.75;;;-1.63;68.16
45793;BME280;31495;42.740;22.908;2023-02-17T03:55:56;93982.84;;;-1.87;68.47
45793;BME280;31495;42.740;22.908;2023-02-17T03:56:55;93999.13;;;-1.78;68.81
45793;BME280;31495;42.740;22.908;2023-02-17T03:57:54;94009.06;;;-1.64;68.62
45793;BME280;31495;42.740;22.908;2023-02-17T03:58:54;94004.69;;;-1.73;68.40
45793;BME280;31495;42.740;22.908;2023-02-17T03:59:54;93968.34;;;-1.85;68.44
45793;BME280;31495;42.740;22.908;2023-02-17T04:00:53;94011.59;;;-1.53;68.45
45793;BME280;31495;42.740;22.908;2023-02-17T04:01:52;94008.59;;;-1.58;68.28
45793;BME280;31495;42.740;22.908;2023-02-17T04:02:52;94018.31;;;-1.52;68.61
45793;BME280;31495;42.740;22.908;2023-02-17T04:03:51;93945.50;;;-1.96;68.95
45793;BME280;31495;42.740;22.908;2023-02-17T04:04:51;93999.16;;;-1.56;68.69
45793;BME280;31495;42.740;22.908;2023-02-17T04:05:50;94010.34;;;-1.47;68.28
45793;BME280;31495;42.740;22.908;2023-02-17T04:06:49;94014.59;;;-1.36;68.04
45793;BME280;31495;42.740;22.908;2023-02-17T04:07:49;94000.88;;;-1.56;68.17
45793;BME280;31495;42.740;22.908;2023-02-17T04:08:49;93998.22;;;-1.55;68.45
45793;BME280;31495;42.740;22.908;2023-02-17T04:09:48;93975.38;;;-1.66;68.06
45793;BME280;31495;42.740;22.908;2023-02-17T04:10:56;94006.06;;;-1.35;67.48
45793;BME280;31495;42.740;22.908;2023-02-17T04:11:55;94014.03;;;-1.40;67.37
45793;BME280;31495;42.740;22.908;2023-02-17T04:12:55;94011.84;;;-1.33;67.29
45793;BME280;31495;42.740;22.908;2023-02-17T04:13:54;94001.22;;;-1.50;67.98
45793;BME280;31495;42.740;22.908;2023-02-17T04:14:54;94014.72;;;-1.38;68.06
45793;BME280;31495;42.740;22.908;2023-02-17T04:15:54;94026.72;;;-1.28;68.22
45793;BME280;31495;42.740;22.908;2023-02-17T04:16:54;93956.34;;;-1.72;68.34
45793;BME280;31495;42.740;22.908;2023-02-17T04:17:54;93965.31;;;-1.79;68.28
45793;BME280;31495;42.740;22.908;2023-02-17T04:18:53;93999.63;;;-1.51;68.18
45793;BME280;31495;42.740;22.908;2023-02-17T04:19:53;93989.25;;;-1.59;68.04
45793;BME280;31495;42.740;22.908;2023-02-17T04:20:53;94016.00;;;-1.43;68.43
45793;BME280;31495;42.740;22.908;2023-02-17T04:21:52;94012.44;;;-1.41;67.99
45793;BME280;31495;42.740;22.908;2023-02-17T04:22:52;94006.41;;;-1.51;67.75
45793;BME280;31495;42.740;22.908;2023-02-17T04:23:51;93993.97;;;-1.65;67.48
45793;BME280;31495;42.740;22.908;2023-02-17T04:24:53;93997.19;;;-1.63;67.53
45793;BME280;31495;42.740;22.908;2023-02-17T04:25:52;93958.53;;;-1.90;67.59
45793;BME280;31495;42.740;22.908;2023-02-17T04:26:53;94011.59;;;-1.53;67.63
45793;BME280;31495;42.740;22.908;2023-02-17T04:27:52;94002.28;;;-1.52;67.85
45793;BME280;31495;42.740;22.908;2023-02-17T04:28:52;93998.00;;;-1.63;67.64
45793;BME280;31495;42.740;22.908;2023-02-17T04:29:51;94018.88;;;-1.48;67.69
45793;BME280;31495;42.740;22.908;2023-02-17T04:30:50;94000.41;;;-1.61;67.90
45793;BME280;31495;42.740;22.908;2023-02-17T04:31:50;94003.41;;;-1.68;68.19
45793;BME280;31495;42.740;22.908;2023-02-17T04:32:49;94019.81;;;-1.49;68.09
45793;BME280;31495;42.740;22.908;2023-02-17T04:33:49;94014.13;;;-1.53;68.08
45793;BME280;31495;42.740;22.908;2023-02-17T04:34:48;94009.66;;;-1.49;68.12
45793;BME280;31495;42.740;22.908;2023-02-17T04:35:47;93968.13;;;-1.82;67.93
45793;BME280;31495;42.740;22.908;2023-02-17T04:36:47;93995.34;;;-1.50;67.94
45793;BME280;31495;42.740;22.908;2023-02-17T04:37:46;94006.19;;;-1.48;67.73
45793;BME280;31495;42.740;22.908;2023-02-17T04:38:46;93996.03;;;-1.59;67.82
45793;BME280;31495;42.740;22.908;2023-02-17T04:39:46;93996.03;;;-1.59;68.22
45793;BME280;31495;42.740;22.908;2023-02-17T04:40:45;93944.78;;;-1.98;68.39
45793;BME280;31495;42.740;22.908;2023-02-17T04:41:45;94018.97;;;-1.50;68.75
45793;BME280;31495;42.740;22.908;2023-02-17T04:42:45;94026.94;;;-1.43;68.18
45793;BME280;31495;42.740;22.908;2023-02-17T04:43:45;94028.78;;;-1.45;67.95
45793;BME280;31495;42.740;22.908;2023-02-17T04:44:44;94018.31;;;-1.52;67.65
45793;BME280;31495;42.740;22.908;2023-02-17T04:45:43;93967.88;;;-1.79;67.37
45793;BME280;31495;42.740;22.908;2023-02-17T04:46:43;94005.25;;;-1.58;67.47
45793;BME280;31495;42.740;22.908;2023-02-17T04:47:42;93995.78;;;-1.68;68.02
45793;BME280;31495;42.740;22.908;2023-02-17T04:48:42;93980.78;;;-1.71;68.17
45793;BME280;31495;42.740;22.908;2023-02-17T04:49:41;93981.63;;;-1.70;68.21
45793;BME280;31495;42.740;22.908;2023-02-17T04:50:41;94025.25;;;-1.42;67.88
45793;BME280;31495;42.740;22.908;2023-02-17T04:51:40;94019.69;;;-1.48;67.97
45793;BME280;31495;42.740;22.908;2023-02-17T04:52:39;94001.81;;;-1.57;67.55
45793;BME280;31495;42.740;22.908;2023-02-17T04:53:39;93995.00;;;-1.68;68.11
45793;BME280;31495;42.740;22.908;2023-02-17T04:54:38;93963.63;;;-1.90;68.17
45793;BME280;31495;42.740;22.908;2023-02-17T04:55:38;93933.97;;;-2.00;68.01
45793;BME280;31495;42.740;22.908;2023-02-17T04:56:38;93976.53;;;-1.70;67.87
45793;BME280;31495;42.740;22.908;2023-02-17T04:57:37;93970.06;;;-1.86;68.06
45793;BME280;31495;42.740;22.908;2023-02-17T04:58:37;93994.06;;;-1.78;68.46
45793;BME280;31495;42.740;22.908;2023-02-17T04:59:36;93998.56;;;-1.71;68.46
45793;BME280;31495;42.740;22.908;2023-02-17T05:00:36;94025.81;;;-1.50;68.71
45793;BME280;31495;42.740;22.908;2023-02-17T05:01:35;94017.72;;;-1.55;68.61
45793;BME280;31495;42.740;22.908;2023-02-17T05:02:35;94002.59;;;-1.68;68.90
45793;BME280;31495;42.740;22.908;2023-02-17T05:03:34;94029.25;;;-1.51;69.13
45793;BME280;31495;42.740;22.908;2023-02-17T05:04:34;94002.16;;;-1.51;68.66
45793;BME280;31495;42.740;22.908;2023-02-17T05:05:34;94007.81;;;-1.47;68.59
45793;BME280;31495;42.740;22.908;2023-02-17T05:06:33;93980.69;;;-1.58;68.46
45793;BME280;31495;42.740;22.908;2023-02-17T05:07:33;94023.97;;;-1.37;68.51
45793;BME280;31495;42.740;22.908;2023-02-17T05:08:32;93977.34;;;-1.70;68.35
45793;BME280;31495;42.740;22.908;2023-02-17T05:09:32;93995.34;;;-1.61;68.23
45793;BME280;31495;42.740;22.908;2023-02-17T05:10:31;94027.06;;;-1.33;68.27
45793;BME280;31495;42.740;22.908;2023-02-17T05:11:30;93998.22;;;-1.43;68.09
45793;BME280;31495;42.740;22.908;2023-02-17T05:12:30;94011.72;;;-1.43;68.19
45793;BME280;31495;42.740;22.908;2023-02-17T05:13:29;93967.97;;;-1.80;68.73
45793;BME280;31495;42.740;22.908;2023-02-17T05:14:31;94008.94;;;-1.51;68.70
45793;BME280;31495;42.740;22.908;2023-02-17T05:15:30;94017.28;;;-1.49;68.94
45793;BME280;31495;42.740;22.908;2023-02-17T05:16:30;94040.25;;;-1.39;69.29
45793;BME280;31495;42.740;22.908;2023-02-17T05:17:29;94018.66;;;-1.45;69.02
45793;BME280;31495;42.740;22.908;2023-02-17T05:18:28;93977.00;;;-1.65;68.65
45793;BME280;31495;42.740;22.908;2023-02-17T05:19:28;94007.47;;;-1.42;68.70
45793;BME280;31495;42.740;22.908;2023-02-17T05:20:28;93953.59;;;-1.80;68.80
45793;BME280;31495;42.740;22.908;2023-02-17T05:21:27;94009.66;;;-1.49;68.99
45793;BME280;31495;42.740;22.908;2023-02-17T05:22:27;93997.19;;;-1.52;68.65
45793;BME280;31495;42.740;22.908;2023-02-17T05:23:26;94000.19;;;-1.47;68.72
45793;BME280;31495;42.740;22.908;2023-02-17T05:24:26;94034.34;;;-1.17;68.33
45793;BME280;31495;42.740;22.908;2023-02-17T05:25:25;94003.41;;;-1.34;68.31
45793;BME280;31495;42.740;22.908;2023-02-17T05:26:25;94011.94;;;-1.35;68.32
45793;BME280;31495;42.740;22.908;2023-02-17T05:27:25;94022.09;;;-1.35;68.85
45793;BME280;31495;42.740;22.908;2023-02-17T05:28:24;94033.44;;;-1.27;68.71
45793;BME280;31495;42.740;22.908;2023-02-17T05:29:24;94015.44;;;-1.36;68.83
45793;BME280;31495;42.740;22.908;2023-02-17T05:30:23;94056.63;;;-1.21;69.53
45793;BME280;31495;42.740;22.908;2023-02-17T05:31:23;94020.03;;;-1.41;69.48
45793;BME280;31495;42.740;22.908;2023-02-17T05:32:22;94050.97;;;-1.24;69.24
45793;BME280;31495;42.740;22.908;2023-02-17T05:33:22;93980.34;;;-1.64;69.55
45793;BME280;31495;42.740;22.908;2023-02-17T05:34:22;94030.31;;;-1.31;69.32
45793;BME280;31495;42.740;22.908;2023-02-17T05:35:21;94035.41;;;-1.31;69.23
45793;BME280;31495;42.740;22.908;2023-02-17T05:36:21;94038.50;;;-1.27;69.47
45793;BME280;31495;42.740;22.908;2023-02-17T05:37:20;94039.53;;;-1.30;69.34
45793;BME280;31495;42.740;22.908;2023-02-17T05:38:20;94034.09;;;-1.37;69.45
45793;BME280;31495;42.740;22.908;2023-02-17T05:39:19;93998.94;;;-1.64;69.01
45793;BME280;31495;42.740;22.908;2023-02-17T05:40:19;94057.19;;;-1.28;68.78
45793;BME280;31495;42.740;22.908;2023-02-17T05:41:18;94069.91;;;-1.17;68.76
45793;BME280;31495;42.740;22.908;2023-02-17T05:42:18;94076.47;;;-1.03;68.58
45793;BME280;31495;42.740;22.908;2023-02-17T05:43:17;94053.13;;;-1.20;68.44
45793;BME280;31495;42.740;22.908;2023-02-17T05:44:17;93985.97;;;-1.61;68.43
45793;BME280;31495;42.740;22.908;2023-02-17T05:45:16;94058.69;;;-1.26;68.66
45793;BME280;31495;42.740;22.908;2023-02-17T05:46:16;94049.56;;;-1.28;68.49
45793;BME280;31495;42.740;22.908;2023-02-17T05:47:15;94068.16;;;-1.17;68.37